Time;durP1;ratioP1;P1;durP2;ratioP2;P2;SDS_P1;SDS_P2;PMS_P1;PMS_P2;Temp;Humidity;BMP_temperature;BMP_pressure;BME280_temperature;BME280_humidity;BME280_pressure;Samples;Min_cycle;Max_cycle;Signal;HPM_P1;HPM_P2
2024/01/11 00:01:33;;;;;;;45.65;31.10;;;;;;;;;;5052372;28;20037;-79
2024/01/11 00:03:59;;;;;;;49.17;32.17;;;;;;;;;;5051103;28;20031;-79
2024/01/11 00:06:25;;;;;;;49.15;32.53;;;;;;;;;;5051162;28;20024;-79
2024/01/11 00:08:51;;;;;;;48.20;32.85;;;;;;;;;;5050391;28;20025;-79
2024/01/11 00:11:17;;;;;;;49.15;33.42;;;;;;;;;;5050688;28;20152;-79
2024/01/11 00:13:43;;;;;;;48.47;33.03;;;;;;;;;;5050305;28;20025;-79
2024/01/11 00:16:09;;;;;;;51.90;31.08;;;;;;;;;;5050864;28;20074;-79
2024/01/11 00:18:35;;;;;;;51.55;34.03;;;;;;;;;;5050396;28;20024;-80
2024/01/11 00:21:01;;;;;;;46.03;29.45;;;;;;;;;;5050925;28;20017;-79
2024/01/11 00:23:27;;;;;;;50.38;31.63;;;;;;;;;;5050393;28;20504;-79
2024/01/11 00:25:53;;;;;;;48.45;31.27;;;;;;;;;;5051904;28;20070;-80
2024/01/11 00:28:19;;;;;;;48.65;32.92;;;;;;;;;;5050379;28;20108;-79
2024/01/11 00:30:45;;;;;;;47.15;29.52;;;;;;;;;;5050200;28;20021;-80
2024/01/11 00:33:11;;;;;;;48.17;26.67;;;;;;;;;;5050203;28;20025;-79
2024/01/11 00:35:37;;;;;;;50.67;33.13;;;;;;;;;;5050307;28;20049;-79
2024/01/11 00:38:03;;;;;;;54.15;33.72;;;;;;;;;;5050077;28;20464;-79
2024/01/11 00:40:29;;;;;;;50.92;32.78;;;;;;;;;;5049840;28;20033;-80
2024/01/11 00:42:55;;;;;;;52.83;33.83;;;;;;;;;;5051402;28;20104;-80
2024/01/11 00:45:21;;;;;;;52.88;32.83;;;;;;;;;;5051585;28;20476;-79
2024/01/11 00:47:47;;;;;;;52.13;32.72;;;;;;;;;;5050019;28;20020;-79
2024/01/11 00:50:13;;;;;;;53.15;32.70;;;;;;;;;;5049293;28;20538;-79
2024/01/11 00:52:39;;;;;;;52.10;33.08;;;;;;;;;;5050869;28;20088;-80
2024/01/11 00:55:05;;;;;;;50.22;33.10;;;;;;;;;;5050359;28;20025;-79
2024/01/11 00:57:31;;;;;;;52.35;32.67;;;;;;;;;;5051230;28;20033;-79
2024/01/11 00:59:57;;;;;;;53.65;33.47;;;;;;;;;;5049640;28;20111;-79
2024/01/11 01:02:23;;;;;;;55.30;34.90;;;;;;;;;;5049920;28;20017;-79
2024/01/11 01:04:49;;;;;;;55.63;33.88;;;;;;;;;;5049884;28;20099;-80
2024/01/11 01:07:15;;;;;;;53.42;33.15;;;;;;;;;;5049652;28;20400;-79
2024/01/11 01:09:41;;;;;;;54.85;34.05;;;;;;;;;;5049562;28;20029;-79
2024/01/11 01:12:07;;;;;;;54.38;32.42;;;;;;;;;;5049676;28;20025;-80
2024/01/11 01:14:33;;;;;;;55.90;33.80;;;;;;;;;;5050860;28;20025;-79
2024/01/11 01:16:59;;;;;;;53.15;32.65;;;;;;;;;;5049457;28;20021;-80
2024/01/11 01:19:25;;;;;;;53.25;30.48;;;;;;;;;;5049166;28;20029;-79
2024/01/11 01:21:51;;;;;;;51.40;31.23;;;;;;;;;;5048900;28;20028;-80
2024/01/11 01:24:17;;;;;;;49.83;31.13;;;;;;;;;;5049631;28;20025;-80
2024/01/11 01:26:43;;;;;;;50.70;32.22;;;;;;;;;;5048824;28;20048;-79
2024/01/11 01:29:09;;;;;;;51.30;32.67;;;;;;;;;;5049503;28;20108;-79
2024/01/11 01:31:37;;;;;;;56.05;34.00;;;;;;;;;;5049399;28;20021;-79
2024/01/11 01:34:04;;;;;;;53.65;30.90;;;;;;;;;;5050300;28;20028;-80
2024/01/11 01:36:30;;;;;;;53.88;32.42;;;;;;;;;;5049974;28;20036;-79
2024/01/11 01:38:56;;;;;;;53.63;33.25;;;;;;;;;;5048882;28;20032;-79
2024/01/11 01:41:22;;;;;;;52.25;30.42;;;;;;;;;;5048599;28;20017;-79
2024/01/11 01:43:48;;;;;;;57.25;34.75;;;;;;;;;;5049601;28;20013;-79
2024/01/11 01:46:20;;;;;;;53.78;31.92;;;;;;;;;;5049516;28;20021;-80
2024/01/11 01:48:46;;;;;;;60.35;35.95;;;;;;;;;;5049157;28;20028;-80
2024/01/11 01:51:12;;;;;;;60.80;35.17;;;;;;;;;;5048214;28;20076;-80
2024/01/11 01:53:38;;;;;;;61.03;37.40;;;;;;;;;;5049459;28;20017;-80
2024/01/11 01:56:04;;;;;;;60.85;32.58;;;;;;;;;;5049154;28;20389;-79
2024/01/11 01:58:31;;;;;;;63.25;36.75;;;;;;;;;;5048407;28;20020;-79
2024/01/11 02:00:57;;;;;;;60.63;33.25;;;;;;;;;;5050177;28;20469;-79
2024/01/11 02:03:24;;;;;;;61.53;35.25;;;;;;;;;;5049699;28;20013;-79
2024/01/11 02:05:51;;;;;;;64.78;38.08;;;;;;;;;;5048936;28;20016;-79
2024/01/11 02:08:19;;;;;;;54.30;27.00;;;;;;;;;;5048368;28;20104;-79
2024/01/11 02:10:45;;;;;;;64.47;37.08;;;;;;;;;;5048534;28;20071;-79
2024/01/11 02:13:13;;;;;;;64.97;37.50;;;;;;;;;;5048185;28;20032;-79
2024/01/11 02:15:39;;;;;;;65.15;37.67;;;;;;;;;;5045261;28;20021;-79
2024/01/11 02:18:05;;;;;;;64.65;37.75;;;;;;;;;;5045405;28;20022;-80
2024/01/11 02:20:31;;;;;;;61.05;34.22;;;;;;;;;;5048517;28;20095;-79
2024/01/11 02:23:01;;;;;;;66.57;38.28;;;;;;;;;;5049257;28;20526;-80
2024/01/11 02:25:27;;;;;;;62.22;37.28;;;;;;;;;;5048205;28;20112;-80
2024/01/11 02:27:53;;;;;;;65.07;37.55;;;;;;;;;;5048415;28;20013;-79
2024/01/11 02:30:19;;;;;;;65.13;37.90;;;;;;;;;;5047947;28;20294;-79
2024/01/11 02:32:49;;;;;;;70.18;39.63;;;;;;;;;;5049408;28;20028;-79
2024/01/11 02:35:16;;;;;;;70.95;39.78;;;;;;;;;;5047603;28;20047;-78
2024/01/11 02:37:42;;;;;;;68.75;39.20;;;;;;;;;;5048169;28;20021;-79
2024/01/11 02:40:08;;;;;;;69.72;39.58;;;;;;;;;;5047549;28;20039;-79
2024/01/11 02:42:36;;;;;;;66.18;38.05;;;;;;;;;;5049509;28;20102;-79
2024/01/11 02:45:05;;;;;;;72.45;40.17;;;;;;;;;;5049539;28;20104;-79
2024/01/11 02:47:31;;;;;;;69.80;40.13;;;;;;;;;;5049223;28;20032;-80
2024/01/11 02:49:57;;;;;;;70.30;38.60;;;;;;;;;;5047808;28;20082;-80
2024/01/11 02:52:23;;;;;;;71.00;39.78;;;;;;;;;;5047471;28;20028;-79
2024/01/11 02:54:49;;;;;;;76.15;40.88;;;;;;;;;;5049252;28;20017;-79
2024/01/11 02:57:15;;;;;;;76.03;40.60;;;;;;;;;;5047591;28;20021;-79
2024/01/11 02:59:44;;;;;;;74.13;39.97;;;;;;;;;;5047826;28;20132;-80
2024/01/11 03:02:10;;;;;;;80.72;43.10;;;;;;;;;;5047645;28;20021;-80
2024/01/11 03:04:36;;;;;;;78.53;41.63;;;;;;;;;;5047781;28;20021;-80
2024/01/11 03:07:02;;;;;;;75.88;41.42;;;;;;;;;;5047401;28;20009;-79
2024/01/11 03:09:28;;;;;;;77.30;41.65;;;;;;;;;;5048614;28;20421;-79
2024/01/11 03:11:54;;;;;;;76.00;39.67;;;;;;;;;;5048523;28;20032;-80
2024/01/11 03:14:20;;;;;;;72.45;37.53;;;;;;;;;;5046305;28;20229;-80
2024/01/11 03:16:46;;;;;;;70.03;33.75;;;;;;;;;;5046159;28;20017;-80
2024/01/11 03:19:12;;;;;;;78.57;39.78;;;;;;;;;;5047016;28;20037;-81
2024/01/11 03:21:43;;;;;;;77.90;39.33;;;;;;;;;;5048633;28;20048;-80
2024/01/11 03:24:09;;;;;;;81.18;43.10;;;;;;;;;;5049036;28;20013;-80
2024/01/11 03:26:35;;;;;;;80.70;42.22;;;;;;;;;;5048525;28;20103;-80
2024/01/11 03:29:01;;;;;;;79.25;41.35;;;;;;;;;;5048921;28;20488;-81
2024/01/11 03:31:27;;;;;;;88.88;44.15;;;;;;;;;;5047659;28;20035;-81
2024/01/11 03:33:53;;;;;;;82.43;42.25;;;;;;;;;;5047731;28;20040;-80
2024/01/11 03:36:23;;;;;;;69.72;31.92;;;;;;;;;;5048885;28;20052;-81
2024/01/11 03:38:49;;;;;;;57.78;24.92;;;;;;;;;;5047981;28;20017;-80
2024/01/11 03:41:15;;;;;;;69.70;27.75;;;;;;;;;;5048855;28;20021;-81
2024/01/11 03:43:41;;;;;;;78.32;38.60;;;;;;;;;;5047347;28;20021;-81
2024/01/11 03:46:07;;;;;;;76.10;41.58;;;;;;;;;;5048775;28;20435;-81
2024/01/11 03:48:35;;;;;;;85.43;43.70;;;;;;;;;;5047542;28;20061;-81
2024/01/11 03:51:01;;;;;;;87.40;43.67;;;;;;;;;;5047872;28;20009;-81
2024/01/11 03:53:27;;;;;;;76.80;42.08;;;;;;;;;;5048367;28;20021;-81
2024/01/11 03:55:54;;;;;;;76.78;41.65;;;;;;;;;;5047171;28;20040;-80
2024/01/11 03:58:20;;;;;;;63.78;26.73;;;;;;;;;;5047527;28;20024;-81
2024/01/11 04:00:46;;;;;;;82.20;40.35;;;;;;;;;;5047271;28;20052;-80
2024/01/11 04:03:12;;;;;;;93.10;46.45;;;;;;;;;;5047520;28;20449;-80
2024/01/11 04:05:38;;;;;;;73.80;31.17;;;;;;;;;;5047978;28;20009;-81
2024/01/11 04:08:05;;;;;;;89.47;45.55;;;;;;;;;;5047229;28;20028;-81
2024/01/11 04:10:31;;;;;;;93.78;46.90;;;;;;;;;;5048535;28;20017;-80
2024/01/11 04:12:57;;;;;;;78.25;38.85;;;;;;;;;;5047212;28;20029;-81
2024/01/11 04:15:23;;;;;;;87.18;42.42;;;;;;;;;;5046809;28;20031;-80
2024/01/11 04:17:49;;;;;;;93.30;45.55;;;;;;;;;;5047423;28;20419;-80
2024/01/11 04:20:15;;;;;;;94.75;47.45;;;;;;;;;;5047287;28;20082;-81
2024/01/11 04:22:41;;;;;;;96.97;47.10;;;;;;;;;;5047323;28;20531;-82
2024/01/11 04:25:08;;;;;;;98.72;48.60;;;;;;;;;;5048055;28;20052;-81
2024/01/11 04:27:34;;;;;;;74.07;29.75;;;;;;;;;;5052198;28;20063;-81
2024/01/11 04:30:00;;;;;;;99.72;48.45;;;;;;;;;;5051421;28;20063;-81
2024/01/11 04:32:26;;;;;;;97.55;47.22;;;;;;;;;;5050414;28;20151;-80
2024/01/11 04:34:52;;;;;;;106.32;49.63;;;;;;;;;;5051158;28;20029;-80
2024/01/11 04:37:18;;;;;;;97.88;45.70;;;;;;;;;;5050678;28;20059;-81
2024/01/11 04:39:44;;;;;;;92.85;36.33;;;;;;;;;;5051734;28;20467;-81
2024/01/11 04:42:10;;;;;;;101.25;48.58;;;;;;;;;;5050355;28;20021;-81
2024/01/11 04:44:36;;;;;;;96.13;40.42;;;;;;;;;;5050824;28;20021;-81
2024/01/11 04:47:02;;;;;;;89.78;36.80;;;;;;;;;;5050866;28;20377;-82
2024/01/11 04:49:28;;;;;;;95.57;40.67;;;;;;;;;;5052339;28;20272;-82
2024/01/11 04:51:54;;;;;;;90.75;40.00;;;;;;;;;;5050036;28;20031;-80
2024/01/11 04:54:20;;;;;;;103.15;50.92;;;;;;;;;;5050352;28;20021;-81
2024/01/11 04:56:46;;;;;;;103.60;49.63;;;;;;;;;;5050348;28;20060;-79
2024/01/11 04:59:12;;;;;;;105.60;50.40;;;;;;;;;;5050000;28;20129;-82
2024/01/11 05:01:38;;;;;;;111.70;49.88;;;;;;;;;;5050330;28;20044;-82
2024/01/11 05:04:04;;;;;;;101.57;49.17;;;;;;;;;;5050674;28;20048;-82
2024/01/11 05:06:30;;;;;;;95.60;47.75;;;;;;;;;;5050506;28;20507;-82
2024/01/11 05:08:56;;;;;;;92.15;33.65;;;;;;;;;;5049987;28;20059;-76
2024/01/11 05:11:26;;;;;;;104.97;50.65;;;;;;;;;;5051902;28;20048;-82
2024/01/11 05:13:52;;;;;;;101.97;43.03;;;;;;;;;;5050305;28;20708;-82
2024/01/11 05:16:19;;;;;;;92.68;34.70;;;;;;;;;;5050082;28;20100;-81
2024/01/11 05:18:45;;;;;;;96.88;40.92;;;;;;;;;;5049574;28;20013;-75
2024/01/11 05:21:11;;;;;;;103.60;46.83;;;;;;;;;;5049490;28;20071;-82
2024/01/11 05:23:37;;;;;;;98.10;50.15;;;;;;;;;;5049458;28;20381;-75
2024/01/11 05:26:03;;;;;;;99.63;50.17;;;;;;;;;;5050719;28;20031;-83
2024/01/11 05:28:29;;;;;;;98.80;48.53;;;;;;;;;;5050467;28;20013;-80
2024/01/11 05:30:55;;;;;;;99.47;48.75;;;;;;;;;;5046141;28;20078;-80
2024/01/11 05:33:21;;;;;;;96.85;51.80;;;;;;;;;;5048069;28;20020;-80
2024/01/11 05:35:47;;;;;;;95.80;46.22;;;;;;;;;;5049025;28;20093;-80
2024/01/11 05:38:13;;;;;;;97.72;36.63;;;;;;;;;;5048067;28;20024;-80
2024/01/11 05:40:39;;;;;;;96.35;42.13;;;;;;;;;;5050310;28;20029;-80
2024/01/11 05:43:05;;;;;;;95.85;47.88;;;;;;;;;;5050022;28;20155;-80
2024/01/11 05:45:33;;;;;;;96.45;47.83;;;;;;;;;;5048974;28;20104;-80
2024/01/11 05:47:59;;;;;;;94.43;48.83;;;;;;;;;;5050834;28;20024;-82
2024/01/11 05:50:26;;;;;;;91.15;46.85;;;;;;;;;;5049753;28;20021;-80
2024/01/11 05:52:53;;;;;;;92.28;48.83;;;;;;;;;;5048895;28;20076;-80
2024/01/11 05:55:19;;;;;;;99.10;49.50;;;;;;;;;;5050802;28;20107;-81
2024/01/11 05:57:45;;;;;;;83.63;44.58;;;;;;;;;;5050342;28;20461;-80
2024/01/11 06:00:12;;;;;;;91.45;47.80;;;;;;;;;;5045972;28;20166;-80
2024/01/11 06:02:38;;;;;;;85.78;42.25;;;;;;;;;;5046025;28;20029;-83
2024/01/11 06:05:04;;;;;;;85.50;44.55;;;;;;;;;;5049732;28;20021;-79
2024/01/11 06:07:30;;;;;;;84.78;46.25;;;;;;;;;;5050018;28;20541;-79
2024/01/11 06:09:56;;;;;;;89.22;47.78;;;;;;;;;;5049339;28;20120;-80
2024/01/11 06:12:22;;;;;;;85.97;47.00;;;;;;;;;;5049284;28;20025;-79
2024/01/11 06:14:48;;;;;;;80.07;43.75;;;;;;;;;;5048980;28;20405;-79
2024/01/11 06:17:14;;;;;;;85.75;42.95;;;;;;;;;;5048033;28;20021;-79
2024/01/11 06:19:40;;;;;;;84.35;45.35;;;;;;;;;;5048350;28;20029;-80
2024/01/11 06:22:06;;;;;;;84.03;45.80;;;;;;;;;;5047809;28;20013;-79
2024/01/11 06:24:32;;;;;;;86.45;48.50;;;;;;;;;;5048604;28;20531;-80
2024/01/11 06:26:58;;;;;;;78.93;44.05;;;;;;;;;;5048467;28;20094;-77
2024/01/11 06:29:24;;;;;;;77.85;43.95;;;;;;;;;;5049982;28;20025;-78
2024/01/11 06:31:50;;;;;;;80.93;45.03;;;;;;;;;;5048273;28;20036;-78
2024/01/11 06:34:16;;;;;;;81.18;46.50;;;;;;;;;;5048446;28;20594;-78
2024/01/11 06:36:42;;;;;;;80.20;43.15;;;;;;;;;;5050772;28;20502;-77
2024/01/11 06:39:10;;;;;;;76.32;44.10;;;;;;;;;;5048943;28;20302;-79
2024/01/11 06:41:36;;;;;;;76.95;43.22;;;;;;;;;;5049477;28;20013;-78
2024/01/11 06:44:02;;;;;;;78.10;44.45;;;;;;;;;;5049546;28;20031;-78
2024/01/11 06:46:28;;;;;;;76.05;43.78;;;;;;;;;;5048072;28;20120;-79
2024/01/11 06:48:54;;;;;;;72.60;42.50;;;;;;;;;;5049542;28;20565;-78
2024/01/11 06:51:23;;;;;;;74.70;42.30;;;;;;;;;;5049495;28;20100;-79
2024/01/11 06:53:49;;;;;;;75.97;43.23;;;;;;;;;;5048971;28;20017;-79
2024/01/11 06:56:15;;;;;;;74.18;41.58;;;;;;;;;;5048130;28;20021;-77
2024/01/11 06:58:41;;;;;;;73.50;41.70;;;;;;;;;;5047660;28;20484;-77
2024/01/11 07:01:08;;;;;;;70.18;41.17;;;;;;;;;;5046418;28;20032;-77
2024/01/11 07:03:34;;;;;;;72.78;41.70;;;;;;;;;;5048638;28;20047;-77
2024/01/11 07:06:00;;;;;;;70.25;41.42;;;;;;;;;;5050396;28;20282;-77
2024/01/11 07:08:26;;;;;;;73.30;43.25;;;;;;;;;;5049482;28;20027;-77
2024/01/11 07:10:52;;;;;;;72.88;42.25;;;;;;;;;;5048586;28;20029;-77
2024/01/11 07:13:18;;;;;;;69.28;41.08;;;;;;;;;;5048105;28;20583;-77
2024/01/11 07:15:44;;;;;;;68.03;40.63;;;;;;;;;;5047395;28;20086;-77
2024/01/11 07:18:10;;;;;;;71.38;42.53;;;;;;;;;;5047443;28;20029;-77
2024/01/11 07:20:36;;;;;;;79.00;43.00;;;;;;;;;;5047672;28;20036;-77
2024/01/11 07:23:02;;;;;;;69.82;38.97;;;;;;;;;;5048574;28;20044;-77
2024/01/11 07:25:28;;;;;;;69.88;41.53;;;;;;;;;;5048810;28;20450;-77
2024/01/11 07:27:54;;;;;;;69.60;41.00;;;;;;;;;;5047959;28;20112;-77
2024/01/11 07:30:20;;;;;;;68.47;41.28;;;;;;;;;;5046970;28;20028;-77
2024/01/11 07:32:46;;;;;;;69.25;41.17;;;;;;;;;;5046982;28;20039;-77
2024/01/11 07:35:12;;;;;;;70.85;39.72;;;;;;;;;;5048670;28;20048;-77
2024/01/11 07:37:39;;;;;;;70.25;41.67;;;;;;;;;;5047186;28;20021;-77
2024/01/11 07:40:09;;;;;;;69.00;40.22;;;;;;;;;;5046568;28;20497;-77
2024/01/11 07:42:36;;;;;;;69.43;40.53;;;;;;;;;;5047322;28;20500;-77
2024/01/11 07:45:02;;;;;;;68.43;40.70;;;;;;;;;;5047892;28;20013;-77
2024/01/11 07:47:28;;;;;;;70.45;41.28;;;;;;;;;;5046989;28;20067;-77
2024/01/11 07:49:54;;;;;;;69.70;40.22;;;;;;;;;;5048619;28;20013;-77
2024/01/11 07:52:21;;;;;;;66.22;39.28;;;;;;;;;;5046327;28;20043;-77
2024/01/11 07:54:47;;;;;;;64.38;38.53;;;;;;;;;;5045911;28;20027;-77
2024/01/11 07:57:13;;;;;;;65.78;39.88;;;;;;;;;;5047686;28;20021;-77
2024/01/11 07:59:39;;;;;;;67.07;38.92;;;;;;;;;;5046209;28;20510;-77
2024/01/11 08:02:05;;;;;;;65.63;38.90;;;;;;;;;;5036999;28;20381;-78
2024/01/11 08:04:32;;;;;;;60.75;37.78;;;;;;;;;;5041907;28;20030;-77
2024/01/11 08:07:01;;;;;;;64.70;37.97;;;;;;;;;;5048829;28;20028;-77
2024/01/11 08:09:28;;;;;;;63.13;38.08;;;;;;;;;;5051743;28;20057;-77
2024/01/11 08:11:54;;;;;;;62.40;38.50;;;;;;;;;;5054247;28;20024;-77
2024/01/11 08:14:20;;;;;;;66.28;35.22;;;;;;;;;;5050024;28;20473;-77
2024/01/11 08:16:47;;;;;;;64.05;38.78;;;;;;;;;;5050189;28;20496;-77
2024/01/11 08:19:14;;;;;;;63.75;37.88;;;;;;;;;;5051900;28;20035;-77
2024/01/11 08:21:41;;;;;;;64.75;39.05;;;;;;;;;;5049804;28;20014;-77
2024/01/11 08:24:07;;;;;;;63.42;37.35;;;;;;;;;;5051618;28;20013;-77
2024/01/11 08:26:34;;;;;;;56.45;35.50;;;;;;;;;;5051132;28;20028;-78
2024/01/11 08:29:00;;;;;;;64.35;38.60;;;;;;;;;;5050218;28;20025;-77
2024/01/11 08:31:26;;;;;;;62.05;38.17;;;;;;;;;;5050363;28;20103;-77
2024/01/11 08:33:52;;;;;;;61.88;38.78;;;;;;;;;;5050182;28;20039;-77
2024/01/11 08:36:18;;;;;;;60.70;37.78;;;;;;;;;;5049027;28;20064;-77
2024/01/11 08:38:44;;;;;;;62.35;38.00;;;;;;;;;;5049636;28;20404;-78
2024/01/11 08:41:10;;;;;;;70.32;42.00;;;;;;;;;;5051029;28;20060;-77
2024/01/11 08:43:37;;;;;;;63.05;39.75;;;;;;;;;;5047128;28;20479;-77
2024/01/11 08:46:03;;;;;;;66.78;40.10;;;;;;;;;;5050993;28;20024;-77
2024/01/11 08:48:29;;;;;;;59.13;37.55;;;;;;;;;;5049698;28;20020;-78
2024/01/11 08:50:55;;;;;;;61.05;37.40;;;;;;;;;;5048856;28;20025;-78
2024/01/11 08:53:21;;;;;;;60.85;37.05;;;;;;;;;;5050683;28;20005;-78
2024/01/11 08:55:47;;;;;;;56.15;35.20;;;;;;;;;;5048721;28;20083;-78
2024/01/11 08:58:14;;;;;;;59.58;35.95;;;;;;;;;;5049219;28;20019;-78
2024/01/11 09:00:40;;;;;;;57.28;35.20;;;;;;;;;;5049943;28;20021;-78
2024/01/11 09:03:06;;;;;;;57.92;35.38;;;;;;;;;;5050609;28;20025;-78
2024/01/11 09:05:32;;;;;;;53.42;33.97;;;;;;;;;;5049853;28;21204;-77
2024/01/11 09:07:58;;;;;;;60.15;35.75;;;;;;;;;;5050426;28;20017;-78
2024/01/11 09:10:24;;;;;;;55.25;33.78;;;;;;;;;;5049693;28;20465;-77
2024/01/11 09:12:50;;;;;;;54.08;32.92;;;;;;;;;;5047844;28;20052;-77
2024/01/11 09:15:16;;;;;;;55.80;33.95;;;;;;;;;;5048587;28;20063;-77
2024/01/11 09:17:42;;;;;;;52.90;32.88;;;;;;;;;;5049413;28;20017;-78
2024/01/11 09:20:09;;;;;;;51.85;32.55;;;;;;;;;;5047416;28;20229;-78
2024/01/11 09:22:35;;;;;;;54.00;32.08;;;;;;;;;;5048258;28;20154;-78
2024/01/11 09:25:01;;;;;;;49.10;31.90;;;;;;;;;;5048544;28;20053;-78
2024/01/11 09:27:27;;;;;;;50.60;31.40;;;;;;;;;;5048964;28;20505;-78
2024/01/11 09:29:53;;;;;;;49.17;30.70;;;;;;;;;;5050056;28;20028;-79
2024/01/11 09:32:20;;;;;;;51.38;31.13;;;;;;;;;;5048337;28;20028;-78
2024/01/11 09:34:46;;;;;;;48.97;31.05;;;;;;;;;;5044075;28;20025;-78
2024/01/11 09:37:12;;;;;;;49.80;30.00;;;;;;;;;;5048400;28;20025;-78
2024/01/11 09:39:38;;;;;;;47.10;28.88;;;;;;;;;;5048170;28;20028;-78
2024/01/11 09:42:11;;;;;;;44.95;27.15;;;;;;;;;;5048593;28;20013;-78
2024/01/11 09:44:38;;;;;;;46.95;28.58;;;;;;;;;;5047858;28;20024;-78
2024/01/11 09:47:06;;;;;;;49.50;30.35;;;;;;;;;;5047697;28;20009;-78
2024/01/11 09:49:34;;;;;;;45.67;28.98;;;;;;;;;;5047771;28;20018;-78
2024/01/11 09:52:01;;;;;;;43.95;27.73;;;;;;;;;;5042891;28;20025;-78
2024/01/11 09:54:27;;;;;;;44.90;27.52;;;;;;;;;;5034267;28;20025;-78
2024/01/11 09:56:55;;;;;;;45.55;27.63;;;;;;;;;;5047780;28;20031;-81
2024/01/11 09:59:24;;;;;;;71.75;40.17;;;;;;;;;;5049879;28;20024;-82
2024/01/11 10:01:50;;;;;;;54.75;31.08;;;;;;;;;;5048513;28;20066;-82
2024/01/11 10:04:16;;;;;;;45.58;28.23;;;;;;;;;;5049734;28;20024;-76
2024/01/11 10:06:42;;;;;;;48.25;28.23;;;;;;;;;;5046771;28;20013;-76
2024/01/11 10:09:09;;;;;;;43.92;27.08;;;;;;;;;;5047662;28;20025;-75
2024/01/11 10:11:35;;;;;;;40.67;25.42;;;;;;;;;;5047778;28;20048;-76
2024/01/11 10:14:01;;;;;;;42.50;26.83;;;;;;;;;;5047262;28;20031;-76
2024/01/11 10:16:30;;;;;;;42.10;25.65;;;;;;;;;;5047294;28;20025;-76
2024/01/11 10:18:57;;;;;;;40.88;25.02;;;;;;;;;;5048885;28;20170;-76
2024/01/11 10:21:24;;;;;;;40.90;24.70;;;;;;;;;;5047311;28;20025;-76
2024/01/11 10:23:50;;;;;;;38.40;23.60;;;;;;;;;;5048197;28;20028;-76
2024/01/11 10:26:16;;;;;;;38.38;24.08;;;;;;;;;;5046667;28;20013;-76
2024/01/11 10:28:45;;;;;;;39.95;24.30;;;;;;;;;;5049024;28;20025;-76
2024/01/11 10:31:12;;;;;;;37.67;23.93;;;;;;;;;;5044388;28;20495;-76
2024/01/11 10:33:38;;;;;;;36.30;22.80;;;;;;;;;;5048818;28;20020;-76
2024/01/11 10:36:04;;;;;;;39.70;24.35;;;;;;;;;;5046539;28;20366;-76
2024/01/11 10:38:35;;;;;;;38.53;24.35;;;;;;;;;;5047083;28;20025;-76
2024/01/11 10:41:04;;;;;;;36.53;22.73;;;;;;;;;;5046960;28;20036;-76
2024/01/11 10:43:31;;;;;;;36.35;23.02;;;;;;;;;;5048692;28;20012;-76
2024/01/11 10:46:02;;;;;;;36.15;21.80;;;;;;;;;;5046383;28;20009;-75
2024/01/11 10:48:31;;;;;;;32.72;20.88;;;;;;;;;;5047152;28;20112;-76
2024/01/11 10:51:00;;;;;;;32.10;20.27;;;;;;;;;;5045990;28;20031;-76
2024/01/11 10:53:29;;;;;;;31.00;19.40;;;;;;;;;;5044565;28;20021;-76
2024/01/11 10:55:56;;;;;;;30.30;19.02;;;;;;;;;;5046400;28;20037;-76
2024/01/11 10:58:22;;;;;;;29.25;19.45;;;;;;;;;;5047170;28;20009;-76
2024/01/11 11:00:50;;;;;;;68.13;37.05;;;;;;;;;;5047930;28;20029;-76
2024/01/11 11:03:16;;;;;;;73.32;39.60;;;;;;;;;;5047005;28;20092;-76
2024/01/11 11:05:43;;;;;;;48.08;28.02;;;;;;;;;;5046528;28;20022;-76
2024/01/11 11:08:10;;;;;;;29.60;18.42;;;;;;;;;;5047157;28;20005;-75
2024/01/11 11:10:36;;;;;;;29.08;15.77;;;;;;;;;;5047866;28;20036;-76
2024/01/11 11:13:04;;;;;;;23.60;15.02;;;;;;;;;;5046621;28;20113;-76
2024/01/11 11:15:30;;;;;;;22.77;13.20;;;;;;;;;;5044122;28;20079;-76
2024/01/11 11:17:56;;;;;;;22.65;13.15;;;;;;;;;;5042072;28;20032;-76
2024/01/11 11:20:22;;;;;;;20.20;12.32;;;;;;;;;;5046623;28;20045;-75
2024/01/11 11:23:04;;;;;;;18.73;11.75;;;;;;;;;;5046694;28;20147;-81
2024/01/11 11:25:31;;;;;;;20.88;12.68;;;;;;;;;;5046042;28;20017;-75
2024/01/11 11:27:57;;;;;;;20.95;13.88;;;;;;;;;;5044817;28;20047;-73
2024/01/11 11:30:23;;;;;;;23.77;16.15;;;;;;;;;;5047604;28;20013;-74
2024/01/11 11:32:49;;;;;;;20.48;13.75;;;;;;;;;;5046692;28;20039;-74
2024/01/11 11:35:15;;;;;;;19.45;12.05;;;;;;;;;;5048501;28;20272;-74
2024/01/11 11:37:42;;;;;;;18.13;11.30;;;;;;;;;;5050018;28;20047;-74
2024/01/11 11:40:12;;;;;;;18.95;11.45;;;;;;;;;;5050431;28;20031;-74
2024/01/11 11:42:40;;;;;;;18.25;10.68;;;;;;;;;;5050430;28;20017;-74
2024/01/11 11:45:07;;;;;;;18.70;9.93;;;;;;;;;;5050198;28;20013;-74
2024/01/11 11:47:38;;;;;;;18.40;9.95;;;;;;;;;;5050138;28;20505;-74
2024/01/11 11:50:07;;;;;;;18.65;9.95;;;;;;;;;;5051477;28;20016;-74
2024/01/11 11:52:43;;;;;;;16.95;9.82;;;;;;;;;;5050644;28;20116;-75
2024/01/11 11:55:09;;;;;;;16.52;9.43;;;;;;;;;;5049997;28;20106;-75
2024/01/11 11:57:36;;;;;;;17.63;9.43;;;;;;;;;;5051685;28;20086;-74
2024/01/11 12:00:05;;;;;;;16.33;8.30;;;;;;;;;;5050114;28;20025;-74
2024/01/11 12:02:31;;;;;;;14.65;9.07;;;;;;;;;;5050041;28;20032;-74
2024/01/11 12:04:57;;;;;;;13.60;8.35;;;;;;;;;;5050566;28;20531;-75
2024/01/11 12:07:24;;;;;;;16.20;8.63;;;;;;;;;;5050469;28;20025;-75
2024/01/11 12:09:52;;;;;;;13.80;8.40;;;;;;;;;;5051337;28;20144;-74
2024/01/11 12:12:20;;;;;;;18.23;9.75;;;;;;;;;;5050974;28;20138;-74
2024/01/11 12:14:46;;;;;;;17.05;9.27;;;;;;;;;;5050880;28;20087;-75
2024/01/11 12:17:13;;;;;;;16.42;9.60;;;;;;;;;;5049326;28;20194;-74
2024/01/11 12:19:38;;;;;;;15.63;8.20;;;;;;;;;;5045419;28;20063;-74
2024/01/11 12:22:05;;;;;;;15.48;8.63;;;;;;;;;;5039570;28;20102;-73
2024/01/11 12:24:31;;;;;;;14.73;8.85;;;;;;;;;;5051347;28;20021;-76
2024/01/11 12:26:57;;;;;;;17.92;9.93;;;;;;;;;;5050797;28;20086;-74
2024/01/11 12:29:24;;;;;;;24.15;11.20;;;;;;;;;;5043568;28;20025;-73
2024/01/11 12:31:53;;;;;;;20.92;10.02;;;;;;;;;;5050126;28;20021;-72
2024/01/11 12:34:19;;;;;;;18.02;8.63;;;;;;;;;;5051015;28;20025;-73
2024/01/11 12:36:45;;;;;;;17.92;7.55;;;;;;;;;;5048603;28;20044;-73
2024/01/11 12:39:13;;;;;;;17.27;7.93;;;;;;;;;;5049554;28;20540;-73
2024/01/11 12:41:39;;;;;;;12.90;6.78;;;;;;;;;;5049419;28;20389;-73
2024/01/11 12:44:06;;;;;;;13.85;6.80;;;;;;;;;;5049505;28;20036;-73
2024/01/11 12:46:32;;;;;;;14.90;7.15;;;;;;;;;;5049111;28;20444;-73
2024/01/11 12:48:58;;;;;;;15.10;6.90;;;;;;;;;;5049165;28;20040;-73
2024/01/11 12:51:26;;;;;;;15.50;6.30;;;;;;;;;;5048496;28;20473;-73
2024/01/11 12:53:53;;;;;;;12.63;6.15;;;;;;;;;;5048622;28;20013;-73
2024/01/11 12:56:21;;;;;;;19.17;6.38;;;;;;;;;;5040619;28;20021;-73
2024/01/11 12:58:47;;;;;;;14.05;5.95;;;;;;;;;;5047524;28;20009;-73
2024/01/11 13:01:14;;;;;;;11.18;5.93;;;;;;;;;;5046761;28;20056;-73
2024/01/11 13:03:43;;;;;;;16.38;6.45;;;;;;;;;;5050517;28;20055;-73
2024/01/11 13:06:11;;;;;;;20.38;6.18;;;;;;;;;;5050364;28;20023;-73
2024/01/11 13:08:40;;;;;;;16.75;5.28;;;;;;;;;;5048962;28;20025;-73
2024/01/11 13:11:10;;;;;;;16.42;5.28;;;;;;;;;;5050412;28;20005;-73
2024/01/11 13:13:37;;;;;;;18.17;3.80;;;;;;;;;;5050537;28;20226;-73
2024/01/11 13:16:06;;;;;;;17.77;4.40;;;;;;;;;;5046338;28;20013;-73
2024/01/11 13:18:33;;;;;;;23.35;4.05;;;;;;;;;;5048175;28;20495;-73
2024/01/11 13:20:59;;;;;;;22.92;3.58;;;;;;;;;;5047991;28;20025;-73
2024/01/11 13:23:25;;;;;;;21.05;3.90;;;;;;;;;;5048644;28;20071;-73
2024/01/11 13:25:51;;;;;;;20.00;3.00;;;;;;;;;;5046759;28;20005;-73
2024/01/11 13:28:18;;;;;;;23.02;3.80;;;;;;;;;;5048306;28;20027;-73
2024/01/11 13:30:51;;;;;;;23.45;4.72;;;;;;;;;;5049766;28;20013;-73
2024/01/11 13:33:17;;;;;;;32.45;10.07;;;;;;;;;;5048716;28;20688;-73
2024/01/11 13:35:43;;;;;;;45.35;20.25;;;;;;;;;;5045388;28;20044;-73
2024/01/11 13:38:09;;;;;;;80.28;36.00;;;;;;;;;;5049785;28;20017;-73
2024/01/11 13:40:36;;;;;;;78.40;36.47;;;;;;;;;;5048495;28;20043;-73
2024/01/11 13:43:02;;;;;;;71.38;33.42;;;;;;;;;;5045485;28;20048;-73
2024/01/11 13:45:32;;;;;;;51.35;26.60;;;;;;;;;;5047939;28;20016;-73
2024/01/11 13:47:59;;;;;;;46.87;19.23;;;;;;;;;;5049613;28;20417;-73
2024/01/11 13:50:26;;;;;;;38.22;16.20;;;;;;;;;;5047613;28;20272;-73
2024/01/11 13:52:52;;;;;;;31.40;12.48;;;;;;;;;;5047720;28;20017;-73
2024/01/11 13:55:20;;;;;;;26.27;8.32;;;;;;;;;;5049872;28;20033;-73
2024/01/11 13:57:46;;;;;;;28.30;5.63;;;;;;;;;;5048894;28;20060;-73
2024/01/11 14:00:13;;;;;;;25.50;4.43;;;;;;;;;;5048677;28;20391;-73
2024/01/11 14:02:39;;;;;;;25.77;4.30;;;;;;;;;;5047593;28;20032;-73
2024/01/11 14:05:07;;;;;;;19.92;3.40;;;;;;;;;;5048637;28;20045;-73
2024/01/11 14:07:34;;;;;;;23.20;3.75;;;;;;;;;;5051478;28;20048;-73
2024/01/11 14:10:00;;;;;;;13.63;2.75;;;;;;;;;;5052258;28;20017;-73
2024/01/11 14:12:26;;;;;;;17.63;2.90;;;;;;;;;;5047567;28;20504;-73
2024/01/11 14:14:52;;;;;;;22.83;4.38;;;;;;;;;;5051892;28;20017;-73